sensor_id;sensor_type;location;lat;lon;timestamp;P1;durP1;ratioP1;P2;durP2;ratioP2
23470;SDS011;11908;50.806;4.424;2023-01-28T00:01:10;18.42;;;12.80;;
23470;SDS011;11908;50.806;4.424;2023-01-28T00:03:37;19.35;;;13.60;;
23470;SDS011;11908;50.806;4.424;2023-01-28T00:06:05;18.20;;;12.73;;
23470;SDS011;11908;50.806;4.424;2023-01-28T00:08:32;17.45;;;13.18;;
23470;SDS011;11908;50.806;4.424;2023-01-28T00:11:01;16.20;;;12.45;;
23470;SDS011;11908;50.806;4.424;2023-01-28T00:13:29;17.52;;;12.82;;
23470;SDS011;11908;50.806;4.424;2023-01-28T00:15:56;18.30;;;12.98;;
23470;SDS011;11908;50.806;4.424;2023-01-28T00:18:27;16.40;;;12.40;;
23470;SDS011;11908;50.806;4.424;2023-01-28T00:21:00;21.60;;;12.90;;
23470;SDS011;11908;50.806;4.424;2023-01-28T00:23:28;16.58;;;12.52;;
23470;SDS011;11908;50.806;4.424;2023-01-28T00:25:57;16.40;;;12.38;;
23470;SDS011;11908;50.806;4.424;2023-01-28T00:28:23;19.98;;;13.65;;
23470;SDS011;11908;50.806;4.424;2023-01-28T00:30:49;15.60;;;12.63;;
23470;SDS011;11908;50.806;4.424;2023-01-28T00:33:15;16.77;;;13.10;;
23470;SDS011;11908;50.806;4.424;2023-01-28T00:35:41;14.90;;;11.75;;
23470;SDS011;11908;50.806;4.424;2023-01-28T00:38:07;16.85;;;13.18;;
23470;SDS011;11908;50.806;4.424;2023-01-28T00:40:33;15.90;;;12.73;;
23470;SDS011;11908;50.806;4.424;2023-01-28T00:42:59;17.50;;;13.05;;
23470;SDS011;11908;50.806;4.424;2023-01-28T00:45:25;15.57;;;12.05;;
23470;SDS011;11908;50.806;4.424;2023-01-28T00:47:50;15.57;;;12.25;;
23470;SDS011;11908;50.806;4.424;2023-01-28T00:50:16;17.67;;;12.32;;
23470;SDS011;11908;50.806;4.424;2023-01-28T00:52:42;17.25;;;12.15;;
23470;SDS011;11908;50.806;4.424;2023-01-28T00:55:08;16.38;;;13.10;;
23470;SDS011;11908;50.806;4.424;2023-01-28T00:57:34;17.38;;;12.60;;
23470;SDS011;11908;50.806;4.424;2023-01-28T01:00:00;16.65;;;12.70;;
23470;SDS011;11908;50.806;4.424;2023-01-28T01:02:25;16.75;;;13.27;;
23470;SDS011;11908;50.806;4.424;2023-01-28T01:04:51;17.15;;;13.07;;
23470;SDS011;11908;50.806;4.424;2023-01-28T01:07:23;16.73;;;12.93;;
23470;SDS011;11908;50.806;4.424;2023-01-28T01:09:57;17.05;;;13.18;;
23470;SDS011;11908;50.806;4.424;2023-01-28T01:12:24;14.63;;;11.63;;
23470;SDS011;11908;50.806;4.424;2023-01-28T01:14:49;15.85;;;12.13;;
23470;SDS011;11908;50.806;4.424;2023-01-28T01:17:15;15.38;;;12.75;;
23470;SDS011;11908;50.806;4.424;2023-01-28T01:19:41;16.85;;;12.48;;
23470;SDS011;11908;50.806;4.424;2023-01-28T01:22:07;15.70;;;11.32;;
23470;SDS011;11908;50.806;4.424;2023-01-28T01:24:32;14.75;;;11.73;;
23470;SDS011;11908;50.806;4.424;2023-01-28T01:26:58;14.70;;;11.25;;
23470;SDS011;11908;50.806;4.424;2023-01-28T01:29:24;16.65;;;11.77;;
23470;SDS011;11908;50.806;4.424;2023-01-28T01:31:50;15.48;;;12.02;;
23470;SDS011;11908;50.806;4.424;2023-01-28T01:34:16;16.42;;;12.13;;
23470;SDS011;11908;50.806;4.424;2023-01-28T01:36:41;15.32;;;12.25;;
23470;SDS011;11908;50.806;4.424;2023-01-28T01:39:13;14.90;;;12.15;;
23470;SDS011;11908;50.806;4.424;2023-01-28T01:41:38;15.02;;;11.57;;
23470;SDS011;11908;50.806;4.424;2023-01-28T01:44:05;14.30;;;11.35;;
23470;SDS011;11908;50.806;4.424;2023-01-28T01:46:33;14.00;;;11.05;;
23470;SDS011;11908;50.806;4.424;2023-01-28T01:49:27;14.43;;;12.02;;
23470;SDS011;11908;50.806;4.424;2023-01-28T01:51:56;14.75;;;11.77;;
23470;SDS011;11908;50.806;4.424;2023-01-28T01:54:27;14.70;;;10.95;;
23470;SDS011;11908;50.806;4.424;2023-01-28T01:56:55;14.55;;;10.88;;
23470;SDS011;11908;50.806;4.424;2023-01-28T01:59:24;15.63;;;11.43;;
23470;SDS011;11908;50.806;4.424;2023-01-28T02:01:52;14.02;;;11.00;;
23470;SDS011;11908;50.806;4.424;2023-01-28T02:04:24;13.80;;;11.00;;
23470;SDS011;11908;50.806;4.424;2023-01-28T02:06:52;13.57;;;10.35;;
23470;SDS011;11908;50.806;4.424;2023-01-28T02:09:37;13.50;;;10.90;;
23470;SDS011;11908;50.806;4.424;2023-01-28T02:14:37;14.00;;;11.30;;
23470;SDS011;11908;50.806;4.424;2023-01-28T02:17:08;15.13;;;11.47;;
23470;SDS011;11908;50.806;4.424;2023-01-28T02:19:48;17.05;;;12.63;;
23470;SDS011;11908;50.806;4.424;2023-01-28T02:22:22;15.93;;;12.02;;
23470;SDS011;11908;50.806;4.424;2023-01-28T02:24:55;15.63;;;12.23;;
23470;SDS011;11908;50.806;4.424;2023-01-28T02:30:28;16.35;;;11.65;;
23470;SDS011;11908;50.806;4.424;2023-01-28T02:33:34;16.50;;;12.60;;
23470;SDS011;11908;50.806;4.424;2023-01-28T02:35:59;15.60;;;12.35;;
23470;SDS011;11908;50.806;4.424;2023-01-28T02:38:39;16.10;;;12.43;;
23470;SDS011;11908;50.806;4.424;2023-01-28T02:41:12;17.65;;;12.60;;
23470;SDS011;11908;50.806;4.424;2023-01-28T02:44:00;17.90;;;13.25;;
23470;SDS011;11908;50.806;4.424;2023-01-28T02:49:19;18.52;;;12.82;;
23470;SDS011;11908;50.806;4.424;2023-01-28T02:59:53;16.92;;;12.73;;
23470;SDS011;11908;50.806;4.424;2023-01-28T03:07:55;16.88;;;12.73;;
23470;SDS011;11908;50.806;4.424;2023-01-28T03:10:23;17.05;;;12.63;;
23470;SDS011;11908;50.806;4.424;2023-01-28T03:12:53;17.05;;;12.80;;
23470;SDS011;11908;50.806;4.424;2023-01-28T03:15:40;18.33;;;13.00;;
23470;SDS011;11908;50.806;4.424;2023-01-28T03:21:21;18.45;;;13.25;;
23470;SDS011;11908;50.806;4.424;2023-01-28T03:24:23;18.60;;;13.70;;
23470;SDS011;11908;50.806;4.424;2023-01-28T03:30:30;19.83;;;13.23;;
23470;SDS011;11908;50.806;4.424;2023-01-28T03:33:22;17.83;;;13.05;;
23470;SDS011;11908;50.806;4.424;2023-01-28T03:36:08;18.58;;;13.38;;
23470;SDS011;11908;50.806;4.424;2023-01-28T03:38:53;18.55;;;12.98;;
23470;SDS011;11908;50.806;4.424;2023-01-28T03:41:21;17.90;;;12.57;;
23470;SDS011;11908;50.806;4.424;2023-01-28T03:43:48;20.77;;;13.68;;
23470;SDS011;11908;50.806;4.424;2023-01-28T03:46:14;19.00;;;13.20;;
23470;SDS011;11908;50.806;4.424;2023-01-28T03:48:40;14.98;;;11.15;;
23470;SDS011;11908;50.806;4.424;2023-01-28T03:51:06;17.90;;;12.38;;
23470;SDS011;11908;50.806;4.424;2023-01-28T03:53:32;17.90;;;12.82;;
23470;SDS011;11908;50.806;4.424;2023-01-28T03:55:57;18.40;;;13.13;;
23470;SDS011;11908;50.806;4.424;2023-01-28T03:58:23;18.10;;;12.13;;
23470;SDS011;11908;50.806;4.424;2023-01-28T04:01:10;17.83;;;12.52;;
23470;SDS011;11908;50.806;4.424;2023-01-28T04:03:37;17.70;;;12.60;;
23470;SDS011;11908;50.806;4.424;2023-01-28T04:06:04;17.83;;;13.15;;
23470;SDS011;11908;50.806;4.424;2023-01-28T04:08:31;18.65;;;13.48;;
23470;SDS011;11908;50.806;4.424;2023-01-28T04:10:57;16.42;;;12.50;;
23470;SDS011;11908;50.806;4.424;2023-01-28T04:13:24;17.10;;;11.90;;
23470;SDS011;11908;50.806;4.424;2023-01-28T04:15:50;16.50;;;11.57;;
23470;SDS011;11908;50.806;4.424;2023-01-28T04:18:15;17.17;;;11.85;;
23470;SDS011;11908;50.806;4.424;2023-01-28T04:20:41;17.20;;;11.70;;
23470;SDS011;11908;50.806;4.424;2023-01-28T04:23:07;19.95;;;12.57;;
23470;SDS011;11908;50.806;4.424;2023-01-28T04:25:33;16.80;;;11.88;;
23470;SDS011;11908;50.806;4.424;2023-01-28T04:27:58;16.98;;;12.38;;
23470;SDS011;11908;50.806;4.424;2023-01-28T04:30:24;17.17;;;12.57;;
23470;SDS011;11908;50.806;4.424;2023-01-28T04:32:50;17.35;;;11.75;;
23470;SDS011;11908;50.806;4.424;2023-01-28T04:35:16;19.25;;;11.93;;
23470;SDS011;11908;50.806;4.424;2023-01-28T04:37:42;17.40;;;11.82;;
23470;SDS011;11908;50.806;4.424;2023-01-28T04:40:09;17.27;;;12.45;;
23470;SDS011;11908;50.806;4.424;2023-01-28T04:42:36;16.77;;;12.25;;
23470;SDS011;11908;50.806;4.424;2023-01-28T04:45:01;18.10;;;12.32;;
23470;SDS011;11908;50.806;4.424;2023-01-28T04:47:28;16.77;;;11.40;;
23470;SDS011;11908;50.806;4.424;2023-01-28T04:49:53;16.60;;;11.50;;
23470;SDS011;11908;50.806;4.424;2023-01-28T04:52:19;16.58;;;11.55;;
23470;SDS011;11908;50.806;4.424;2023-01-28T04:54:44;14.85;;;11.02;;
23470;SDS011;11908;50.806;4.424;2023-01-28T04:57:10;16.77;;;10.95;;
23470;SDS011;11908;50.806;4.424;2023-01-28T04:59:36;15.43;;;11.57;;
23470;SDS011;11908;50.806;4.424;2023-01-28T05:02:02;14.55;;;10.73;;
23470;SDS011;11908;50.806;4.424;2023-01-28T05:04:27;17.33;;;11.45;;
23470;SDS011;11908;50.806;4.424;2023-01-28T05:06:53;15.70;;;11.43;;
23470;SDS011;11908;50.806;4.424;2023-01-28T05:09:19;15.30;;;10.88;;
23470;SDS011;11908;50.806;4.424;2023-01-28T05:11:44;15.82;;;11.60;;
23470;SDS011;11908;50.806;4.424;2023-01-28T05:14:10;16.95;;;12.15;;
23470;SDS011;11908;50.806;4.424;2023-01-28T05:16:36;15.52;;;11.40;;
23470;SDS011;11908;50.806;4.424;2023-01-28T05:19:01;17.00;;;11.77;;
23470;SDS011;11908;50.806;4.424;2023-01-28T05:21:27;16.60;;;11.73;;
23470;SDS011;11908;50.806;4.424;2023-01-28T05:23:53;18.13;;;12.65;;
23470;SDS011;11908;50.806;4.424;2023-01-28T05:26:19;17.17;;;12.50;;
23470;SDS011;11908;50.806;4.424;2023-01-28T05:28:44;19.23;;;13.20;;
23470;SDS011;11908;50.806;4.424;2023-01-28T05:31:10;18.90;;;12.65;;
23470;SDS011;11908;50.806;4.424;2023-01-28T05:33:36;19.45;;;13.48;;
23470;SDS011;11908;50.806;4.424;2023-01-28T05:36:02;19.85;;;13.65;;
23470;SDS011;11908;50.806;4.424;2023-01-28T05:38:28;18.25;;;12.82;;
23470;SDS011;11908;50.806;4.424;2023-01-28T05:40:54;17.98;;;13.13;;
23470;SDS011;11908;50.806;4.424;2023-01-28T05:43:20;17.52;;;12.68;;
23470;SDS011;11908;50.806;4.424;2023-01-28T05:45:46;19.05;;;13.45;;
23470;SDS011;11908;50.806;4.424;2023-01-28T05:48:12;16.15;;;12.18;;
23470;SDS011;11908;50.806;4.424;2023-01-28T05:50:38;18.00;;;13.18;;
23470;SDS011;11908;50.806;4.424;2023-01-28T05:53:07;17.38;;;12.82;;
23470;SDS011;11908;50.806;4.424;2023-01-28T05:55:33;17.98;;;12.50;;
23470;SDS011;11908;50.806;4.424;2023-01-28T05:57:59;17.20;;;12.18;;
23470;SDS011;11908;50.806;4.424;2023-01-28T06:00:25;18.17;;;11.85;;
23470;SDS011;11908;50.806;4.424;2023-01-28T06:02:51;16.27;;;11.82;;
23470;SDS011;11908;50.806;4.424;2023-01-28T06:05:17;17.58;;;12.32;;
23470;SDS011;11908;50.806;4.424;2023-01-28T06:07:44;17.02;;;11.93;;
23470;SDS011;11908;50.806;4.424;2023-01-28T06:10:10;15.80;;;11.13;;
23470;SDS011;11908;50.806;4.424;2023-01-28T06:12:35;15.43;;;11.35;;
23470;SDS011;11908;50.806;4.424;2023-01-28T06:15:01;16.25;;;12.07;;
23470;SDS011;11908;50.806;4.424;2023-01-28T06:17:27;16.83;;;12.00;;
23470;SDS011;11908;50.806;4.424;2023-01-28T06:19:53;17.75;;;12.70;;
23470;SDS011;11908;50.806;4.424;2023-01-28T06:22:19;17.45;;;12.25;;
23470;SDS011;11908;50.806;4.424;2023-01-28T06:24:44;16.83;;;12.10;;
23470;SDS011;11908;50.806;4.424;2023-01-28T06:27:10;17.40;;;12.60;;
23470;SDS011;11908;50.806;4.424;2023-01-28T06:29:36;17.77;;;13.30;;
23470;SDS011;11908;50.806;4.424;2023-01-28T06:32:01;18.02;;;12.75;;
23470;SDS011;11908;50.806;4.424;2023-01-28T06:34:27;20.77;;;13.00;;
23470;SDS011;11908;50.806;4.424;2023-01-28T06:36:53;19.38;;;13.27;;
23470;SDS011;11908;50.806;4.424;2023-01-28T06:39:19;18.65;;;13.50;;
23470;SDS011;11908;50.806;4.424;2023-01-28T06:41:46;21.67;;;14.65;;
23470;SDS011;11908;50.806;4.424;2023-01-28T06:44:12;20.33;;;13.80;;
23470;SDS011;11908;50.806;4.424;2023-01-28T06:46:38;17.67;;;13.35;;
23470;SDS011;11908;50.806;4.424;2023-01-28T06:49:03;19.13;;;14.18;;
23470;SDS011;11908;50.806;4.424;2023-01-28T06:51:29;20.15;;;14.57;;
23470;SDS011;11908;50.806;4.424;2023-01-28T06:53:55;18.35;;;13.30;;
23470;SDS011;11908;50.806;4.424;2023-01-28T06:56:20;20.83;;;14.43;;
23470;SDS011;11908;50.806;4.424;2023-01-28T06:58:46;18.20;;;13.15;;
23470;SDS011;11908;50.806;4.424;2023-01-28T07:01:12;18.15;;;13.20;;
23470;SDS011;11908;50.806;4.424;2023-01-28T07:03:37;18.00;;;13.38;;
23470;SDS011;11908;50.806;4.424;2023-01-28T07:06:03;18.63;;;13.85;;
23470;SDS011;11908;50.806;4.424;2023-01-28T07:08:29;17.40;;;12.77;;
23470;SDS011;11908;50.806;4.424;2023-01-28T07:10:55;19.08;;;13.43;;
23470;SDS011;11908;50.806;4.424;2023-01-28T07:13:21;18.67;;;13.20;;
23470;SDS011;11908;50.806;4.424;2023-01-28T07:15:46;17.50;;;13.45;;
23470;SDS011;11908;50.806;4.424;2023-01-28T07:18:13;16.98;;;11.82;;
23470;SDS011;11908;50.806;4.424;2023-01-28T07:20:39;15.88;;;12.23;;
23470;SDS011;11908;50.806;4.424;2023-01-28T07:23:04;14.68;;;11.32;;
23470;SDS011;11908;50.806;4.424;2023-01-28T07:25:31;16.75;;;11.77;;
23470;SDS011;11908;50.806;4.424;2023-01-28T07:27:56;16.65;;;10.82;;
23470;SDS011;11908;50.806;4.424;2023-01-28T07:30:22;14.73;;;10.73;;
23470;SDS011;11908;50.806;4.424;2023-01-28T07:32:54;14.63;;;10.57;;
23470;SDS011;11908;50.806;4.424;2023-01-28T07:35:21;14.98;;;11.10;;
23470;SDS011;11908;50.806;4.424;2023-01-28T07:37:51;14.07;;;10.48;;
23470;SDS011;11908;50.806;4.424;2023-01-28T07:40:16;14.95;;;11.18;;
23470;SDS011;11908;50.806;4.424;2023-01-28T07:42:42;14.02;;;10.75;;
23470;SDS011;11908;50.806;4.424;2023-01-28T07:45:08;14.73;;;11.02;;
23470;SDS011;11908;50.806;4.424;2023-01-28T07:47:34;14.55;;;11.30;;
23470;SDS011;11908;50.806;4.424;2023-01-28T07:49:59;14.52;;;11.30;;
23470;SDS011;11908;50.806;4.424;2023-01-28T07:52:25;15.02;;;10.90;;
23470;SDS011;11908;50.806;4.424;2023-01-28T07:54:51;15.98;;;11.88;;
23470;SDS011;11908;50.806;4.424;2023-01-28T07:57:17;17.80;;;12.32;;
23470;SDS011;11908;50.806;4.424;2023-01-28T07:59:47;15.38;;;11.93;;
23470;SDS011;11908;50.806;4.424;2023-01-28T08:02:14;14.65;;;11.85;;
23470;SDS011;11908;50.806;4.424;2023-01-28T08:04:41;16.80;;;12.93;;
23470;SDS011;11908;50.806;4.424;2023-01-28T08:07:07;15.52;;;12.02;;
23470;SDS011;11908;50.806;4.424;2023-01-28T08:09:33;16.65;;;12.15;;
23470;SDS011;11908;50.806;4.424;2023-01-28T08:11:59;16.73;;;12.05;;
23470;SDS011;11908;50.806;4.424;2023-01-28T08:14:26;15.80;;;11.73;;
23470;SDS011;11908;50.806;4.424;2023-01-28T08:16:52;17.15;;;12.32;;
23470;SDS011;11908;50.806;4.424;2023-01-28T08:19:18;15.73;;;11.77;;
23470;SDS011;11908;50.806;4.424;2023-01-28T08:21:48;16.25;;;11.80;;
23470;SDS011;11908;50.806;4.424;2023-01-28T08:24:15;16.52;;;11.80;;
23470;SDS011;11908;50.806;4.424;2023-01-28T08:26:41;15.32;;;11.60;;
23470;SDS011;11908;50.806;4.424;2023-01-28T08:29:07;16.33;;;12.18;;
23470;SDS011;11908;50.806;4.424;2023-01-28T08:31:33;18.10;;;13.40;;
23470;SDS011;11908;50.806;4.424;2023-01-28T08:33:59;18.10;;;13.20;;
23470;SDS011;11908;50.806;4.424;2023-01-28T08:36:24;19.13;;;12.50;;
23470;SDS011;11908;50.806;4.424;2023-01-28T08:38:51;16.30;;;12.32;;
23470;SDS011;11908;50.806;4.424;2023-01-28T08:41:20;16.38;;;12.45;;
23470;SDS011;11908;50.806;4.424;2023-01-28T08:43:46;17.20;;;12.27;;
23470;SDS011;11908;50.806;4.424;2023-01-28T08:46:13;17.27;;;11.63;;
23470;SDS011;11908;50.806;4.424;2023-01-28T08:48:38;16.30;;;12.20;;
23470;SDS011;11908;50.806;4.424;2023-01-28T08:51:04;14.85;;;11.43;;
23470;SDS011;11908;50.806;4.424;2023-01-28T08:53:30;19.98;;;11.70;;
23470;SDS011;11908;50.806;4.424;2023-01-28T08:55:56;18.08;;;13.45;;
23470;SDS011;11908;50.806;4.424;2023-01-28T08:58:22;17.50;;;13.48;;
23470;SDS011;11908;50.806;4.424;2023-01-28T09:00:47;18.60;;;13.00;;
23470;SDS011;11908;50.806;4.424;2023-01-28T09:03:13;19.65;;;13.77;;
23470;SDS011;11908;50.806;4.424;2023-01-28T09:05:40;19.42;;;13.57;;
23470;SDS011;11908;50.806;4.424;2023-01-28T09:08:06;17.13;;;12.52;;
23470;SDS011;11908;50.806;4.424;2023-01-28T09:10:33;18.20;;;13.27;;
23470;SDS011;11908;50.806;4.424;2023-01-28T09:13:08;17.75;;;13.13;;
23470;SDS011;11908;50.806;4.424;2023-01-28T09:15:39;19.33;;;13.20;;
23470;SDS011;11908;50.806;4.424;2023-01-28T09:18:05;17.42;;;13.52;;
23470;SDS011;11908;50.806;4.424;2023-01-28T09:20:31;17.35;;;13.02;;
23470;SDS011;11908;50.806;4.424;2023-01-28T09:22:58;17.27;;;12.85;;
23470;SDS011;11908;50.806;4.424;2023-01-28T09:25:24;20.65;;;14.20;;
23470;SDS011;11908;50.806;4.424;2023-01-28T09:27:50;18.92;;;13.73;;
23470;SDS011;11908;50.806;4.424;2023-01-28T09:30:15;17.30;;;12.95;;
23470;SDS011;11908;50.806;4.424;2023-01-28T09:32:41;19.70;;;13.43;;
23470;SDS011;11908;50.806;4.424;2023-01-28T09:35:07;18.13;;;13.55;;
23470;SDS011;11908;50.806;4.424;2023-01-28T09:37:34;20.85;;;14.65;;
23470;SDS011;11908;50.806;4.424;2023-01-28T09:39:59;19.80;;;13.73;;
23470;SDS011;11908;50.806;4.424;2023-01-28T09:45:39;17.50;;;13.25;;
23470;SDS011;11908;50.806;4.424;2023-01-28T09:48:20;20.05;;;14.02;;
23470;SDS011;11908;50.806;4.424;2023-01-28T09:50:50;18.90;;;13.93;;
23470;SDS011;11908;50.806;4.424;2023-01-28T09:53:18;18.60;;;13.82;;
23470;SDS011;11908;50.806;4.424;2023-01-28T09:58:19;18.90;;;13.60;;
23470;SDS011;11908;50.806;4.424;2023-01-28T10:09:20;18.42;;;14.05;;
23470;SDS011;11908;50.806;4.424;2023-01-28T10:11:51;19.15;;;14.18;;
23470;SDS011;11908;50.806;4.424;2023-01-28T10:17:25;19.08;;;13.70;;
23470;SDS011;11908;50.806;4.424;2023-01-28T10:22:43;19.45;;;14.15;;
23470;SDS011;11908;50.806;4.424;2023-01-28T10:25:18;19.65;;;13.20;;
23470;SDS011;11908;50.806;4.424;2023-01-28T10:27:49;20.63;;;14.45;;
23470;SDS011;11908;50.806;4.424;2023-01-28T10:30:20;20.25;;;14.00;;
23470;SDS011;11908;50.806;4.424;2023-01-28T10:33:02;19.30;;;14.50;;
23470;SDS011;11908;50.806;4.424;2023-01-28T10:35:39;21.73;;;14.63;;
23470;SDS011;11908;50.806;4.424;2023-01-28T10:38:07;20.95;;;15.48;;
23470;SDS011;11908;50.806;4.424;2023-01-28T10:40:41;19.33;;;14.68;;
23470;SDS011;11908;50.806;4.424;2023-01-28T10:43:07;19.20;;;14.35;;
23470;SDS011;11908;50.806;4.424;2023-01-28T10:48:16;19.45;;;14.23;;
23470;SDS011;11908;50.806;4.424;2023-01-28T10:50:53;22.92;;;16.23;;
23470;SDS011;11908;50.806;4.424;2023-01-28T10:53:32;19.50;;;14.48;;
23470;SDS011;11908;50.806;4.424;2023-01-28T10:55:58;18.92;;;13.82;;
23470;SDS011;11908;50.806;4.424;2023-01-28T10:58:28;22.30;;;13.88;;
23470;SDS011;11908;50.806;4.424;2023-01-28T11:01:02;20.63;;;14.23;;
23470;SDS011;11908;50.806;4.424;2023-01-28T11:03:29;20.92;;;14.50;;
23470;SDS011;11908;50.806;4.424;2023-01-28T11:05:56;20.38;;;14.23;;
23470;SDS011;11908;50.806;4.424;2023-01-28T11:08:26;16.33;;;11.82;;
23470;SDS011;11908;50.806;4.424;2023-01-28T11:10:54;18.00;;;12.98;;
23470;SDS011;11908;50.806;4.424;2023-01-28T11:13:24;17.70;;;12.45;;
23470;SDS011;11908;50.806;4.424;2023-01-28T11:15:52;17.35;;;12.95;;
23470;SDS011;11908;50.806;4.424;2023-01-28T11:18:30;16.52;;;12.35;;
23470;SDS011;11908;50.806;4.424;2023-01-28T11:21:46;18.15;;;13.18;;
23470;SDS011;11908;50.806;4.424;2023-01-28T11:24:03;17.48;;;13.30;;
23470;SDS011;11908;50.806;4.424;2023-01-28T11:26:37;18.38;;;13.57;;
23470;SDS011;11908;50.806;4.424;2023-01-28T11:29:17;21.80;;;13.52;;
23470;SDS011;11908;50.806;4.424;2023-01-28T11:31:50;17.25;;;12.25;;
23470;SDS011;11908;50.806;4.424;2023-01-28T11:34:17;16.38;;;12.25;;
23470;SDS011;11908;50.806;4.424;2023-01-28T11:36:50;17.73;;;12.70;;
23470;SDS011;11908;50.806;4.424;2023-01-28T11:39:24;18.48;;;13.27;;
23470;SDS011;11908;50.806;4.424;2023-01-28T11:41:52;19.92;;;12.77;;
23470;SDS011;11908;50.806;4.424;2023-01-28T11:44:20;19.70;;;13.75;;
23470;SDS011;11908;50.806;4.424;2023-01-28T12:09:08;20.80;;;14.70;;
23470;SDS011;11908;50.806;4.424;2023-01-28T12:11:51;19.98;;;14.80;;
23470;SDS011;11908;50.806;4.424;2023-01-28T12:20:21;20.67;;;14.15;;
23470;SDS011;11908;50.806;4.424;2023-01-28T12:23:02;19.83;;;14.50;;
23470;SDS011;11908;50.806;4.424;2023-01-28T12:26:24;20.23;;;13.98;;
23470;SDS011;11908;50.806;4.424;2023-01-28T12:34:58;20.55;;;14.73;;
23470;SDS011;11908;50.806;4.424;2023-01-28T12:42:53;20.27;;;14.13;;
23470;SDS011;11908;50.806;4.424;2023-01-28T12:47:55;18.63;;;13.68;;
23470;SDS011;11908;50.806;4.424;2023-01-28T12:53:22;18.92;;;13.68;;
23470;SDS011;11908;50.806;4.424;2023-01-28T12:56:04;18.40;;;13.13;;
23470;SDS011;11908;50.806;4.424;2023-01-28T12:58:42;19.15;;;13.35;;
23470;SDS011;11908;50.806;4.424;2023-01-28T13:01:15;16.60;;;13.35;;
23470;SDS011;11908;50.806;4.424;2023-01-28T13:03:52;17.42;;;12.85;;
23470;SDS011;11908;50.806;4.424;2023-01-28T13:06:27;17.67;;;13.35;;
23470;SDS011;11908;50.806;4.424;2023-01-28T13:09:09;16.65;;;13.30;;
23470;SDS011;11908;50.806;4.424;2023-01-28T13:11:44;17.67;;;13.50;;
23470;SDS011;11908;50.806;4.424;2023-01-28T13:14:13;16.13;;;12.90;;
23470;SDS011;11908;50.806;4.424;2023-01-28T13:16:40;18.05;;;13.65;;
23470;SDS011;11908;50.806;4.424;2023-01-28T13:19:35;16.55;;;13.15;;
23470;SDS011;11908;50.806;4.424;2023-01-28T13:22:08;16.90;;;12.77;;
23470;SDS011;11908;50.806;4.424;2023-01-28T13:25:24;17.70;;;13.25;;
23470;SDS011;11908;50.806;4.424;2023-01-28T13:28:04;18.48;;;13.20;;
23470;SDS011;11908;50.806;4.424;2023-01-28T13:30:31;19.10;;;13.30;;
23470;SDS011;11908;50.806;4.424;2023-01-28T13:33:01;19.85;;;14.45;;
23470;SDS011;11908;50.806;4.424;2023-01-28T13:37:56;18.52;;;13.38;;
23470;SDS011;11908;50.806;4.424;2023-01-28T13:40:29;19.60;;;13.88;;
23470;SDS011;11908;50.806;4.424;2023-01-28T13:42:56;20.27;;;14.52;;
23470;SDS011;11908;50.806;4.424;2023-01-28T13:45:27;18.83;;;14.48;;
23470;SDS011;11908;50.806;4.424;2023-01-28T13:47:59;19.83;;;13.90;;
23470;SDS011;11908;50.806;4.424;2023-01-28T13:50:39;17.52;;;13.68;;
23470;SDS011;11908;50.806;4.424;2023-01-28T13:55:54;17.77;;;13.90;;
23470;SDS011;11908;50.806;4.424;2023-01-28T13:58:35;20.52;;;14.60;;
23470;SDS011;11908;50.806;4.424;2023-01-28T14:01:11;19.60;;;14.27;;
23470;SDS011;11908;50.806;4.424;2023-01-28T14:17:48;18.50;;;13.73;;
23470;SDS011;11908;50.806;4.424;2023-01-28T14:23:05;23.25;;;14.00;;
23470;SDS011;11908;50.806;4.424;2023-01-28T14:34:18;18.73;;;12.45;;
23470;SDS011;11908;50.806;4.424;2023-01-28T14:37:01;19.67;;;13.45;;
23470;SDS011;11908;50.806;4.424;2023-01-28T14:39:31;18.20;;;12.45;;
23470;SDS011;11908;50.806;4.424;2023-01-28T14:42:05;16.65;;;11.88;;
23470;SDS011;11908;50.806;4.424;2023-01-28T14:44:45;19.45;;;12.95;;
23470;SDS011;11908;50.806;4.424;2023-01-28T14:47:27;19.65;;;12.25;;
23470;SDS011;11908;50.806;4.424;2023-01-28T14:58:03;19.40;;;13.38;;
23470;SDS011;11908;50.806;4.424;2023-01-28T15:00:33;17.42;;;12.82;;
23470;SDS011;11908;50.806;4.424;2023-01-28T15:02:59;20.00;;;14.13;;
23470;SDS011;11908;50.806;4.424;2023-01-28T15:05:32;20.63;;;14.30;;
23470;SDS011;11908;50.806;4.424;2023-01-28T15:07:58;21.30;;;14.85;;
23470;SDS011;11908;50.806;4.424;2023-01-28T15:10:31;18.00;;;13.05;;
23470;SDS011;11908;50.806;4.424;2023-01-28T15:13:07;18.30;;;13.10;;
23470;SDS011;11908;50.806;4.424;2023-01-28T15:15:36;17.67;;;13.23;;
23470;SDS011;11908;50.806;4.424;2023-01-28T15:18:16;19.70;;;13.85;;
23470;SDS011;11908;50.806;4.424;2023-01-28T15:20:45;17.10;;;12.63;;
23470;SDS011;11908;50.806;4.424;2023-01-28T15:23:15;17.55;;;13.05;;
23470;SDS011;11908;50.806;4.424;2023-01-28T15:25:43;19.33;;;13.52;;
23470;SDS011;11908;50.806;4.424;2023-01-28T15:28:13;19.05;;;12.95;;
23470;SDS011;11908;50.806;4.424;2023-01-28T15:30:46;19.17;;;12.88;;
23470;SDS011;11908;50.806;4.424;2023-01-28T15:33:13;17.27;;;12.70;;
23470;SDS011;11908;50.806;4.424;2023-01-28T15:35:50;20.83;;;13.20;;
23470;SDS011;11908;50.806;4.424;2023-01-28T15:38:18;20.00;;;13.82;;
23470;SDS011;11908;50.806;4.424;2023-01-28T15:40:45;17.60;;;13.23;;
23470;SDS011;11908;50.806;4.424;2023-01-28T15:43:24;19.33;;;13.63;;
23470;SDS011;11908;50.806;4.424;2023-01-28T15:46:00;18.27;;;12.95;;
23470;SDS011;11908;50.806;4.424;2023-01-28T15:48:27;18.02;;;13.02;;
23470;SDS011;11908;50.806;4.424;2023-01-28T15:51:05;20.77;;;14.68;;
23470;SDS011;11908;50.806;4.424;2023-01-28T15:53:35;18.13;;;12.68;;
23470;SDS011;11908;50.806;4.424;2023-01-28T15:56:09;18.55;;;13.65;;
23470;SDS011;11908;50.806;4.424;2023-01-28T15:58:36;19.50;;;13.90;;
23470;SDS011;11908;50.806;4.424;2023-01-28T16:03:34;18.88;;;13.48;;
23470;SDS011;11908;50.806;4.424;2023-01-28T16:06:27;19.58;;;13.23;;
23470;SDS011;11908;50.806;4.424;2023-01-28T16:08:54;18.33;;;13.75;;
23470;SDS011;11908;50.806;4.424;2023-01-28T16:11:29;22.88;;;14.00;;
23470;SDS011;11908;50.806;4.424;2023-01-28T16:14:01;18.42;;;12.82;;
23470;SDS011;11908;50.806;4.424;2023-01-28T16:16:33;20.23;;;13.00;;
23470;SDS011;11908;50.806;4.424;2023-01-28T16:19:04;17.80;;;12.10;;
23470;SDS011;11908;50.806;4.424;2023-01-28T16:21:34;21.95;;;13.70;;
23470;SDS011;11908;50.806;4.424;2023-01-28T16:24:26;21.42;;;13.80;;
23470;SDS011;11908;50.806;4.424;2023-01-28T16:26:58;23.27;;;15.73;;
23470;SDS011;11908;50.806;4.424;2023-01-28T16:29:25;26.40;;;15.77;;
23470;SDS011;11908;50.806;4.424;2023-01-28T16:31:52;21.90;;;14.35;;
23470;SDS011;11908;50.806;4.424;2023-01-28T16:34:18;22.42;;;14.77;;
23470;SDS011;11908;50.806;4.424;2023-01-28T16:36:44;24.52;;;15.63;;
23470;SDS011;11908;50.806;4.424;2023-01-28T16:39:09;20.90;;;14.80;;
23470;SDS011;11908;50.806;4.424;2023-01-28T16:41:42;24.80;;;16.17;;
23470;SDS011;11908;50.806;4.424;2023-01-28T16:44:11;22.33;;;14.93;;
23470;SDS011;11908;50.806;4.424;2023-01-28T16:46:38;20.98;;;14.43;;
23470;SDS011;11908;50.806;4.424;2023-01-28T16:49:03;21.50;;;14.57;;
23470;SDS011;11908;50.806;4.424;2023-01-28T16:51:29;22.05;;;14.98;;
23470;SDS011;11908;50.806;4.424;2023-01-28T16:53:55;21.80;;;15.57;;